Time;durP1;ratioP1;P1;durP2;ratioP2;P2;SDS_P1;SDS_P2;PMS_P1;PMS_P2;Temp;Humidity;BMP_temperature;BMP_pressure;BME280_temperature;BME280_humidity;BME280_pressure;Samples;Min_cycle;Max_cycle;Signal;HPM_P1;HPM_P2
2023/08/26 00:01:35;;;;;;;4.03;2.33;;;;;;;20.56;100.00;99545.09;5053776;28;20202;-76
2023/08/26 00:04:01;;;;;;;3.53;2.23;;;;;;;20.57;100.00;99546.81;5053906;28;20216;-76
2023/08/26 00:06:28;;;;;;;8.17;3.20;;;;;;;20.56;100.00;99550.41;5053741;28;20811;-76
2023/08/26 00:08:54;;;;;;;4.23;2.47;;;;;;;20.56;100.00;99552.22;5053560;28;20206;-77
2023/08/26 00:11:21;;;;;;;3.60;2.80;;;;;;;20.56;100.00;99550.41;5053537;28;20240;-77
2023/08/26 00:13:47;;;;;;;3.10;2.73;;;;;;;20.53;100.00;99540.03;5053529;28;20583;-77
2023/08/26 00:16:14;;;;;;;4.73;2.30;;;;;;;20.52;100.00;99525.09;5053514;28;20224;-77
2023/08/26 00:18:42;;;;;;;3.97;2.70;;;;;;;20.48;100.00;99513.03;5053540;28;20215;-76
2023/08/26 00:21:10;;;;;;;8.43;2.93;;;;;;;20.52;100.00;99508.34;5053421;28;20239;-77
2023/08/26 00:23:37;;;;;;;3.43;2.63;;;;;;;20.52;100.00;99506.53;5053449;28;20224;-77
2023/08/26 00:26:03;;;;;;;2.80;2.60;;;;;;;20.56;100.00;99515.09;5053622;28;20221;-77
2023/08/26 00:28:30;;;;;;;5.33;3.27;;;;;;;20.56;100.00;99517.75;5053239;28;20215;-77
2023/08/26 00:30:58;;;;;;;5.00;2.80;;;;;;;20.48;100.00;99515.69;5053282;28;20233;-77
2023/08/26 00:33:24;;;;;;;4.13;2.80;;;;;;;20.00;100.00;99478.63;5053078;28;20712;-77
2023/08/26 00:35:52;;;;;;;4.47;2.63;;;;;;;20.23;100.00;99456.53;5053436;28;20212;-77
2023/08/26 00:38:19;;;;;;;4.73;2.43;;;;;;;20.30;100.00;99477.31;5053048;28;20216;-77
2023/08/26 00:40:45;;;;;;;4.90;3.57;;;;;;;20.50;100.00;99504.97;5052976;28;20204;-77
2023/08/26 00:43:12;;;;;;;5.37;3.43;;;;;;;20.49;100.00;99517.34;5052863;28;20609;-77
2023/08/26 00:45:40;;;;;;;5.27;4.80;;;;;;;20.35;100.00;99489.22;5052948;28;20690;-77
2023/08/26 00:48:08;;;;;;;4.97;4.63;;;;;;;20.42;100.00;99484.34;5052883;28;20216;-77
2023/08/26 00:50:35;;;;;;;3.40;3.20;;;;;;;20.51;100.00;99493.38;5052658;28;20268;-77
2023/08/26 00:53:03;;;;;;;4.70;2.80;;;;;;;20.50;100.00;99499.66;5052696;28;20240;-77
2023/08/26 00:55:31;;;;;;;3.83;3.53;;;;;;;20.52;100.00;99505.69;5052824;28;20204;-77
2023/08/26 00:57:57;;;;;;;4.57;3.53;;;;;;;20.51;100.00;99506.63;5052079;28;20690;-77
2023/08/26 01:00:25;;;;;;;4.13;3.30;;;;;;;20.56;100.00;99504.50;5052703;28;20298;-77
2023/08/26 01:02:51;;;;;;;5.73;3.03;;;;;;;20.56;100.00;99515.09;5052518;28;20746;-77
2023/08/26 01:05:18;;;;;;;3.17;2.97;;;;;;;20.58;100.00;99511.38;5053127;28;20224;-77
2023/08/26 01:07:46;;;;;;;4.07;2.83;;;;;;;20.56;100.00;99494.72;5052494;28;20327;-76
2023/08/26 01:10:14;;;;;;;3.70;2.77;;;;;;;20.58;100.00;99494.63;5052212;28;20235;-76
2023/08/26 01:12:54;;;;;;;3.43;3.13;;;;;;;20.59;100.00;99502.50;5052561;28;20229;-76
2023/08/26 01:15:21;;;;;;;4.83;3.00;;;;;;;20.53;100.00;99508.22;5052614;28;20206;-76
2023/08/26 01:17:47;;;;;;;5.13;3.37;;;;;;;20.58;100.00;99510.53;5052292;28;20212;-76
2023/08/26 01:20:15;;;;;;;7.40;5.93;;;;;;;20.56;100.00;99504.50;5052207;28;20213;-76
2023/08/26 01:22:43;;;;;;;4.33;3.47;;;;;;;20.58;100.00;99513.19;5052195;28;20315;-76
2023/08/26 01:25:10;;;;;;;3.70;3.40;;;;;;;20.61;100.00;99518.28;5052507;28;20212;-77
2023/08/26 01:27:37;;;;;;;6.73;3.50;;;;;;;20.64;100.00;99520.69;5052269;28;20228;-77
2023/08/26 01:30:06;;;;;;;8.10;4.13;;;;;;;20.66;100.00;99523.25;5052054;28;20214;-77
2023/08/26 01:32:38;;;;;;;7.80;3.50;;;;;;;20.67;100.00;99531.06;5052117;28;20260;-77
2023/08/26 01:35:09;;;;;;;4.77;3.83;;;;;;;20.36;100.00;99513.94;5052078;28;20224;-77
2023/08/26 01:37:39;;;;;;;4.40;4.10;;;;;;;20.17;100.00;99472.06;5052157;28;20287;-77
2023/08/26 01:40:09;;;;;;;6.23;4.10;;;;;;;20.16;100.00;99460.63;5052029;28;20210;-77
2023/08/26 01:42:40;;;;;;;6.93;3.60;;;;;;;19.95;100.00;99449.81;5051802;28;20311;-77
2023/08/26 01:45:07;;;;;;;6.00;4.23;;;;;;;19.91;100.00;99426.31;5052125;28;20219;-76
2023/08/26 01:47:34;;;;;;;3.93;3.60;;;;;;;19.89;100.00;99425.59;5051683;28;20221;-77
2023/08/26 01:50:01;;;;;;;4.00;3.80;;;;;;;19.83;100.00;99419.78;5051905;28;20227;-77
2023/08/26 01:52:27;;;;;;;4.13;3.83;;;;;;;20.09;100.00;99432.88;5052139;28;20232;-76
2023/08/26 01:54:54;;;;;;;10.13;4.00;;;;;;;20.29;100.00;99465.00;5052044;28;20307;-76
2023/08/26 01:57:20;;;;;;;5.50;4.30;;;;;;;20.37;100.00;99482.00;5051783;28;20231;-77
2023/08/26 01:59:48;;;;;;;4.73;4.33;;;;;;;20.39;100.00;99492.50;5051711;28;20229;-76
2023/08/26 02:02:15;;;;;;;10.10;9.20;;;;;;;19.78;100.00;99440.47;5051590;28;20226;-76
2023/08/26 02:04:41;;;;;;;6.13;5.30;;;;;;;19.78;100.00;99413.13;5051973;28;20212;-77
2023/08/26 02:07:08;;;;;;;7.97;4.77;;;;;;;19.79;100.00;99413.00;5051780;28;20234;-77
2023/08/26 02:09:34;;;;;;;5.80;5.27;;;;;;;20.24;100.00;99433.56;5053232;28;20683;-77
2023/08/26 02:12:01;;;;;;;6.80;6.20;;;;;;;20.35;100.00;99468.03;5055764;28;20236;-77
2023/08/26 02:14:27;;;;;;;7.50;6.73;;;;;;;19.96;100.00;99467.41;5055787;28;20209;-77
2023/08/26 02:16:55;;;;;;;7.03;6.20;;;;;;;20.26;100.00;99467.88;5055588;28;20216;-76
2023/08/26 02:19:22;;;;;;;8.33;7.70;;;;;;;20.38;100.00;99501.44;5055794;28;20701;-77
2023/08/26 02:21:48;;;;;;;8.67;7.77;;;;;;;20.47;100.00;99519.28;5055624;28;20220;-76
2023/08/26 02:24:15;;;;;;;10.40;9.50;;;;;;;20.54;100.00;99538.25;5055762;28;20204;-76
2023/08/26 02:26:41;;;;;;;11.27;10.13;;;;;;;20.39;100.00;99541.06;5055570;28;20211;-76
2023/08/26 02:29:08;;;;;;;11.27;10.27;;;;;;;20.35;100.00;99542.25;5055691;28;20236;-77
2023/08/26 02:31:35;;;;;;;11.03;10.13;;;;;;;20.27;100.00;99527.88;5055232;28;20246;-77
2023/08/26 02:34:03;;;;;;;9.70;9.00;;;;;;;20.21;100.00;99507.97;5055676;28;20208;-77
2023/08/26 02:36:29;;;;;;;8.00;7.30;;;;;;;20.27;100.00;99512.81;5055546;28;20215;-77
2023/08/26 02:38:56;;;;;;;8.47;7.77;;;;;;;20.32;100.00;99509.84;5055395;28;20216;-77
2023/08/26 02:41:22;;;;;;;7.37;6.10;;;;;;;20.36;100.00;99513.94;5055037;28;20214;-77
2023/08/26 02:43:49;;;;;;;10.87;7.30;;;;;;;20.37;100.00;99520.94;5055235;28;20216;-77
2023/08/26 02:46:15;;;;;;;13.37;10.03;;;;;;;20.34;100.00;99521.16;5055473;28;20205;-77
2023/08/26 02:48:42;;;;;;;12.17;10.97;;;;;;;20.30;100.00;99511.75;5055291;28;20219;-77
2023/08/26 02:51:10;;;;;;;10.90;9.90;;;;;;;19.92;100.00;99510.97;5054991;28;20234;-77
2023/08/26 02:53:36;;;;;;;11.50;10.37;;;;;;;19.80;100.00;99485.34;5055135;28;20281;-77
2023/08/26 02:56:03;;;;;;;13.67;12.47;;;;;;;19.66;100.00;99478.38;5055113;28;20230;-77
2023/08/26 02:58:29;;;;;;;13.37;12.17;;;;;;;19.80;100.00;99480.06;5054848;28;20213;-77
2023/08/26 03:01:01;;;;;;;13.13;11.90;;;;;;;20.08;100.00;99486.84;5054823;28;20671;-76
2023/08/26 03:03:27;;;;;;;13.43;12.40;;;;;;;19.95;100.00;99502.78;5057521;28;20290;-77
2023/08/26 03:05:57;;;;;;;13.37;12.17;;;;;;;20.01;100.00;99512.09;5054971;28;20212;-77
2023/08/26 03:08:25;;;;;;;12.37;11.17;;;;;;;20.05;100.00;99508.25;5054693;28;20212;-77
2023/08/26 03:11:02;;;;;;;13.27;12.03;;;;;;;20.09;100.00;99532.72;5054598;28;20240;-76
2023/08/26 03:13:29;;;;;;;14.17;12.97;;;;;;;20.36;100.00;99556.38;5054728;28;20236;-76
2023/08/26 03:15:57;;;;;;;14.73;13.53;;;;;;;20.42;100.00;99580.59;5054851;28;20237;-77
2023/08/26 03:18:23;;;;;;;17.00;15.27;;;;;;;20.34;100.00;99582.97;5054662;28;20208;-77
2023/08/26 03:20:50;;;;;;;14.60;13.27;;;;;;;20.29;100.00;99561.25;5054058;28;20211;-76
2023/08/26 03:23:16;;;;;;;15.77;14.10;;;;;;;20.40;100.00;99561.31;5054476;28;20232;-77
2023/08/26 03:25:44;;;;;;;14.50;13.23;;;;;;;20.46;100.00;99580.38;5054481;28;20205;-77
2023/08/26 03:28:11;;;;;;;15.77;14.13;;;;;;;20.48;100.00;99592.56;5054570;28;20208;-77
2023/08/26 03:30:37;;;;;;;17.07;15.57;;;;;;;20.46;100.00;99589.19;5054190;28;20694;-77
2023/08/26 03:33:04;;;;;;;17.57;15.90;;;;;;;20.34;100.00;99567.06;5054384;28;20232;-77
2023/08/26 03:35:31;;;;;;;16.97;15.10;;;;;;;20.40;100.00;99561.31;5054378;28;20207;-76
2023/08/26 03:37:57;;;;;;;18.90;16.60;;;;;;;20.38;100.00;99567.69;5054146;28;20208;-77
2023/08/26 03:40:24;;;;;;;18.83;17.07;;;;;;;20.34;100.00;99553.81;5054127;28;20212;-76
2023/08/26 03:42:52;;;;;;;19.47;17.87;;;;;;;20.42;100.00;99572.66;5054158;28;20726;-77
2023/08/26 03:45:19;;;;;;;18.30;16.10;;;;;;;20.49;100.00;99580.97;5054484;28;20202;-77
2023/08/26 03:47:45;;;;;;;19.63;17.60;;;;;;;20.53;100.00;99592.22;5055112;28;20216;-77
2023/08/26 03:50:12;;;;;;;17.57;16.07;;;;;;;20.56;100.00;99592.00;5055413;28;20215;-77
2023/08/26 03:52:38;;;;;;;20.27;16.70;;;;;;;20.59;100.00;99595.31;5055390;28;20264;-76
2023/08/26 03:55:06;;;;;;;17.60;15.93;;;;;;;20.55;100.00;99596.44;5054312;28;20201;-76
2023/08/26 03:57:32;;;;;;;18.63;17.03;;;;;;;20.58;100.00;99590.06;5054082;28;20212;-77
2023/08/26 04:00:00;;;;;;;20.17;18.23;;;;;;;20.52;100.00;99601.13;5053694;28;20606;-77
2023/08/26 04:02:27;;;;;;;18.53;16.40;;;;;;;20.58;100.00;99614.78;5053838;28;20222;-77
2023/08/26 04:04:53;;;;;;;17.23;15.73;;;;;;;20.54;100.00;99618.63;5053884;28;20232;-77
2023/08/26 04:07:20;;;;;;;19.90;17.87;;;;;;;20.53;100.00;99613.41;5053563;28;20697;-76
2023/08/26 04:09:46;;;;;;;18.70;17.00;;;;;;;20.52;100.00;99617.88;5053835;28;20295;-76
2023/08/26 04:12:13;;;;;;;20.43;18.30;;;;;;;20.55;100.00;99624.75;5053420;28;20725;-76
2023/08/26 04:14:39;;;;;;;21.30;19.23;;;;;;;20.35;100.00;99648.25;5053624;28;20219;-76
2023/08/26 04:17:07;;;;;;;19.60;17.87;;;;;;;20.47;100.00;99635.09;5053444;28;20675;-77
2023/08/26 04:19:34;;;;;;;21.40;18.63;;;;;;;20.49;100.00;99635.81;5053445;28;20208;-77
2023/08/26 04:22:01;;;;;;;20.67;18.63;;;;;;;20.45;100.00;99648.44;5053410;28;20221;-77
2023/08/26 04:24:28;;;;;;;20.47;18.33;;;;;;;20.30;100.00;99642.47;5053416;28;20736;-77
2023/08/26 04:26:54;;;;;;;21.77;19.53;;;;;;;20.27;100.00;99642.69;5053420;28;20263;-76
2023/08/26 04:29:21;;;;;;;21.90;19.60;;;;;;;20.34;100.00;99641.28;5053561;28;20205;-76
2023/08/26 04:31:47;;;;;;;18.67;17.07;;;;;;;20.38;100.00;99652.53;5052143;28;20239;-76
2023/08/26 04:34:15;;;;;;;24.00;18.60;;;;;;;20.39;100.00;99664.81;5053197;28;20215;-76
2023/08/26 04:36:42;;;;;;;21.33;19.03;;;;;;;20.40;100.00;99667.34;5053469;28;20216;-76
2023/08/26 04:39:11;;;;;;;21.63;19.40;;;;;;;20.47;100.00;99683.66;5053540;28;20574;-76
2023/08/26 04:41:38;;;;;;;25.87;19.97;;;;;;;20.41;100.00;99684.94;5053211;28;20262;-77
2023/08/26 04:44:07;;;;;;;26.93;20.77;;;;;;;20.37;100.00;99678.16;5052979;28;20216;-76
2023/08/26 04:46:34;;;;;;;22.77;19.97;;;;;;;20.35;100.00;99673.94;5052878;28;20208;-76
2023/08/26 04:49:00;;;;;;;23.30;18.80;;;;;;;20.38;100.00;99676.38;5052847;28;20244;-76
2023/08/26 04:51:28;;;;;;;22.03;19.80;;;;;;;20.39;100.00;99675.41;5052544;28;20235;-76
2023/08/26 04:53:54;;;;;;;20.37;18.33;;;;;;;20.46;100.00;99691.72;5052872;28;20220;-77
2023/08/26 04:56:21;;;;;;;22.90;19.73;;;;;;;20.46;100.00;99692.56;5052931;28;20212;-76
2023/08/26 04:58:48;;;;;;;21.77;19.50;;;;;;;20.48;100.00;99690.66;5052820;28;20211;-76
2023/08/26 05:01:14;;;;;;;23.77;20.43;;;;;;;20.21;100.00;99689.00;5052490;28;20219;-77
2023/08/26 05:03:40;;;;;;;22.27;20.17;;;;;;;20.32;100.00;99682.13;5052472;28;20240;-77
2023/08/26 05:06:07;;;;;;;22.30;20.03;;;;;;;20.39;100.00;99694.78;5052589;28;20574;-76
2023/08/26 05:08:35;;;;;;;22.67;19.50;;;;;;;20.43;100.00;99700.72;5052623;28;20206;-77
2023/08/26 05:11:03;;;;;;;21.77;19.70;;;;;;;20.40;100.00;99707.09;5052484;28;20208;-76
2023/08/26 05:13:29;;;;;;;22.37;20.20;;;;;;;20.39;100.00;99713.34;5052325;28;20232;-76
2023/08/26 05:15:56;;;;;;;22.00;19.80;;;;;;;20.34;100.00;99709.38;5052488;28;20231;-76
2023/08/26 05:18:22;;;;;;;22.40;20.00;;;;;;;20.39;100.00;99712.50;5052443;28;20671;-76
2023/08/26 05:20:49;;;;;;;23.33;19.77;;;;;;;20.27;100.00;99713.41;5052435;28;20210;-75
2023/08/26 05:23:17;;;;;;;22.60;20.50;;;;;;;20.26;100.00;99701.97;5052222;28;20756;-76
2023/08/26 05:25:46;;;;;;;23.10;20.00;;;;;;;20.34;100.00;99712.00;5052337;28;20212;-76
2023/08/26 05:28:13;;;;;;;22.83;19.10;;;;;;;20.29;100.00;99717.63;5052180;28;20562;-76
2023/08/26 05:30:40;;;;;;;21.57;19.60;;;;;;;20.30;100.00;99737.06;5051755;28;20207;-75
2023/08/26 05:33:06;;;;;;;22.70;19.93;;;;;;;20.27;100.00;99742.56;5052971;28;20327;-76
2023/08/26 05:35:33;;;;;;;19.83;18.13;;;;;;;20.12;100.00;99744.47;5052303;28;20231;-76
2023/08/26 05:38:00;;;;;;;25.50;18.80;;;;;;;20.18;100.00;99741.41;5052143;28;20298;-76
2023/08/26 05:40:28;;;;;;;20.03;18.23;;;;;;;20.20;100.00;99745.63;5051858;28;20215;-76
2023/08/26 05:42:57;;;;;;;21.33;19.50;;;;;;;20.29;100.00;99741.47;5051686;28;20259;-76
2023/08/26 05:45:24;;;;;;;19.47;17.40;;;;;;;20.36;100.00;99752.50;5052243;28;20309;-76
2023/08/26 05:47:51;;;;;;;18.43;16.67;;;;;;;20.40;100.00;99757.47;5051979;28;20212;-76
2023/08/26 05:50:17;;;;;;;20.40;18.50;;;;;;;20.34;100.00;99762.38;5051912;28;20220;-75
2023/08/26 05:52:44;;;;;;;20.00;17.90;;;;;;;20.33;100.00;99752.72;5051825;28;20240;-75
2023/08/26 05:55:11;;;;;;;18.73;16.73;;;;;;;20.33;99.84;99758.84;5051949;28;20265;-75
2023/08/26 05:57:37;;;;;;;20.10;18.07;;;;;;;20.36;100.00;99761.31;5051628;28;20219;-76
2023/08/26 06:00:07;;;;;;;18.57;16.93;;;;;;;20.34;99.65;99767.69;5051639;28;20223;-75
2023/08/26 06:02:34;;;;;;;16.97;15.20;;;;;;;20.34;98.50;99789.72;5051721;28;20702;-75
2023/08/26 06:05:01;;;;;;;16.70;15.33;;;;;;;20.38;97.91;99812.41;5051746;28;20699;-75
2023/08/26 06:07:27;;;;;;;16.83;15.23;;;;;;;20.35;98.40;99803.81;5051777;28;20213;-75
2023/08/26 06:09:54;;;;;;;15.90;13.13;;;;;;;20.35;97.32;99820.56;5051616;28;20214;-75
2023/08/26 06:12:20;;;;;;;15.07;13.67;;;;;;;20.33;95.94;99843.69;5051430;28;20248;-75
2023/08/26 06:14:47;;;;;;;13.83;12.63;;;;;;;20.28;95.44;99861.72;5051580;28;20235;-75
2023/08/26 06:17:15;;;;;;;14.20;13.03;;;;;;;20.24;94.19;99886.75;5051674;28;20204;-75
2023/08/26 06:19:41;;;;;;;13.80;12.70;;;;;;;20.12;92.46;99914.91;5051750;28;20219;-75
2023/08/26 06:22:07;;;;;;;13.77;12.53;;;;;;;20.26;93.69;99918.41;5051406;28;20728;-75
2023/08/26 06:24:34;;;;;;;13.40;12.27;;;;;;;20.26;93.64;99921.94;5051542;28;20215;-75
2023/08/26 06:27:01;;;;;;;13.97;12.67;;;;;;;20.02;93.32;99919.16;5051377;28;20204;-75
2023/08/26 06:29:28;;;;;;;14.00;12.80;;;;;;;20.19;95.34;99896.78;5051756;28;20212;-75
2023/08/26 06:31:54;;;;;;;13.63;12.43;;;;;;;20.23;94.67;99888.53;5051193;28;20238;-75
2023/08/26 06:34:22;;;;;;;14.50;13.30;;;;;;;20.04;93.02;99911.94;5051555;28;20212;-75
2023/08/26 06:36:49;;;;;;;13.80;12.50;;;;;;;20.22;93.10;99909.84;5051394;28;20211;-75
2023/08/26 06:39:15;;;;;;;14.47;13.33;;;;;;;20.34;93.38;99927.56;5051482;28;20295;-75
2023/08/26 06:41:42;;;;;;;12.10;11.20;;;;;;;20.44;93.49;99925.13;5051115;28;20236;-76
2023/08/26 06:44:08;;;;;;;12.60;11.60;;;;;;;20.41;91.74;99951.84;5051546;28;20208;-75
2023/08/26 06:46:35;;;;;;;12.97;11.97;;;;;;;20.22;89.31;99981.41;5051363;28;20209;-75
2023/08/26 06:49:01;;;;;;;15.40;14.13;;;;;;;20.40;90.66;99987.28;5051447;28;20302;-77
2023/08/26 06:51:29;;;;;;;14.47;13.27;;;;;;;20.15;88.14;100019.84;5051320;28;20246;-73
2023/08/26 06:53:56;;;;;;;15.93;14.33;;;;;;;20.25;88.38;100015.66;5051178;28;20229;-75
2023/08/26 06:56:23;;;;;;;16.97;15.57;;;;;;;20.33;89.83;100000.06;5054056;28;20209;-75
2023/08/26 06:58:50;;;;;;;16.77;15.47;;;;;;;20.34;89.46;100016.84;5055252;28;20242;-74
2023/08/26 07:01:17;;;;;;;18.67;16.73;;;;;;;20.02;86.24;100052.47;5054665;28;20586;-74
2023/08/26 07:03:43;;;;;;;4.67;3.47;;;;;;;19.05;68.84;100390.97;5054848;28;20239;-74
2023/08/26 07:06:10;;;;;;;2.30;2.03;;;;;;;18.79;66.88;100528.09;5054972;28;20215;-74
2023/08/26 07:08:38;;;;;;;1.63;1.53;;;;;;;18.62;65.67;100649.72;5054726;28;20668;-74
2023/08/26 07:11:05;;;;;;;2.20;1.33;;;;;;;18.24;64.20;100735.19;5054862;28;20213;-75
2023/08/26 07:13:31;;;;;;;1.37;1.27;;;;;;;18.17;65.07;100767.25;5054588;28;20257;-75
2023/08/26 07:15:58;;;;;;;1.23;1.13;;;;;;;18.32;65.54;100786.84;5054498;28;20210;-75
2023/08/26 07:18:24;;;;;;;1.33;0.93;;;;;;;18.09;62.17;100824.84;5054230;28;20203;-74
2023/08/26 07:20:51;;;;;;;1.67;0.80;;;;;;;18.01;62.64;100847.16;5053917;28;20210;-74
2023/08/26 07:23:17;;;;;;;1.43;0.90;;;;;;;17.97;62.54;100872.00;5054286;28;20236;-76
2023/08/26 07:25:45;;;;;;;0.90;0.77;;;;;;;18.03;62.28;100862.97;5054565;28;20676;-75
2023/08/26 07:28:12;;;;;;;3.53;1.27;;;;;;;18.07;62.87;100867.19;5054511;28;20206;-76
2023/08/26 07:30:41;;;;;;;2.13;0.93;;;;;;;18.21;64.14;100850.72;5054152;28;20210;-76
2023/08/26 07:33:07;;;;;;;1.13;0.60;;;;;;;18.14;63.62;100857.22;5054316;28;20234;-76
2023/08/26 07:35:34;;;;;;;1.13;0.80;;;;;;;18.13;63.70;100847.56;5054319;28;20215;-76
2023/08/26 07:38:00;;;;;;;1.10;0.90;;;;;;;18.32;64.17;100827.34;5054272;28;20588;-76
2023/08/26 07:40:27;;;;;;;2.70;0.77;;;;;;;18.06;62.12;100834.63;5054138;28;20687;-76
2023/08/26 07:42:55;;;;;;;5.20;1.23;;;;;;;18.13;63.45;100848.41;5054400;28;20221;-76
2023/08/26 07:45:22;;;;;;;0.93;0.87;;;;;;;18.20;63.37;100841.09;5054106;28;20216;-76
2023/08/26 07:47:49;;;;;;;4.43;0.70;;;;;;;18.26;63.89;100819.69;5053780;28;20255;-76
2023/08/26 07:50:15;;;;;;;2.93;0.70;;;;;;;18.26;63.20;100823.19;5053883;28;20209;-76
2023/08/26 07:52:42;;;;;;;2.30;1.00;;;;;;;18.28;64.21;100811.69;5054070;28;20241;-75
2023/08/26 07:55:09;;;;;;;1.03;0.83;;;;;;;18.24;63.60;100801.25;5054167;28;20205;-75
2023/08/26 07:57:36;;;;;;;1.80;0.70;;;;;;;18.30;65.19;100793.97;5053851;28;20576;-75
2023/08/26 08:00:05;;;;;;;2.17;1.07;;;;;;;18.29;64.13;100779.03;5053737;28;20215;-75
2023/08/26 08:02:32;;;;;;;3.63;1.20;;;;;;;18.36;65.75;100778.69;5048972;28;20248;-78
2023/08/26 08:04:58;;;;;;;2.03;0.60;;;;;;;18.50;65.23;100751.63;5050438;28;20218;-78
2023/08/26 08:07:25;;;;;;;1.63;0.80;;;;;;;18.20;64.09;100801.47;5045697;28;20207;-77
2023/08/26 08:09:53;;;;;;;1.10;0.77;;;;;;;18.15;63.64;100799.00;5044084;28;20199;-77
2023/08/26 08:12:22;;;;;;;0.87;0.87;;;;;;;18.21;64.23;100808.44;5044165;28;20215;-75
2023/08/26 08:14:48;;;;;;;0.93;0.93;;;;;;;18.33;66.03;100773.53;5051631;28;20220;-76
2023/08/26 08:17:16;;;;;;;2.10;1.23;;;;;;;18.48;64.25;100793.13;5047289;28;20285;-75
2023/08/26 08:19:45;;;;;;;3.37;1.10;;;;;;;18.51;63.99;100800.91;5053735;28;20215;-75
2023/08/26 08:22:12;;;;;;;0.80;0.80;;;;;;;18.65;65.22;100787.91;5053472;28;20225;-76
2023/08/26 08:24:38;;;;;;;1.90;0.90;;;;;;;18.52;64.33;100796.50;5053324;28;20695;-75
2023/08/26 08:27:05;;;;;;;0.70;0.70;;;;;;;18.75;65.39;100766.31;5053325;28;20587;-76
2023/08/26 08:29:32;;;;;;;1.23;1.00;;;;;;;18.77;63.93;100794.41;5053330;28;20202;-75
2023/08/26 08:31:58;;;;;;;1.63;0.97;;;;;;;18.71;62.01;100820.28;5053595;28;20238;-78
2023/08/26 08:34:26;;;;;;;1.50;0.83;;;;;;;18.71;62.49;100846.72;5053068;28;20232;-75
2023/08/26 08:36:53;;;;;;;2.87;1.00;;;;;;;18.62;61.91;100848.88;5053144;28;20221;-75
2023/08/26 08:39:19;;;;;;;4.37;0.97;;;;;;;18.62;63.20;100837.44;5052941;28;20763;-75
2023/08/26 08:41:49;;;;;;;2.13;1.10;;;;;;;18.77;62.47;100830.56;5052633;28;20237;-75
2023/08/26 08:44:17;;;;;;;2.57;0.90;;;;;;;18.68;62.14;100833.66;5043795;28;20689;-77
2023/08/26 08:46:46;;;;;;;2.70;0.97;;;;;;;18.75;61.41;100845.66;5046675;28;20207;-75
2023/08/26 08:49:13;;;;;;;1.00;0.90;;;;;;;18.69;61.04;100878.56;5052460;28;20203;-76
2023/08/26 08:51:41;;;;;;;2.03;0.63;;;;;;;18.84;61.53;100882.28;5036751;28;20557;-76
2023/08/26 08:54:08;;;;;;;1.80;0.77;;;;;;;18.93;62.10;100867.78;5038413;28;20386;-76
2023/08/26 08:56:35;;;;;;;1.67;0.80;;;;;;;18.75;61.79;100870.34;5043224;28;20202;-75
2023/08/26 08:59:02;;;;;;;2.40;0.90;;;;;;;18.72;61.04;100875.75;5042527;28;20205;-76
2023/08/26 09:01:32;;;;;;;1.30;0.87;;;;;;;18.59;61.49;100882.50;5041324;28;20208;-77
2023/08/26 09:03:58;;;;;;;2.20;1.20;;;;;;;18.67;61.30;100890.94;5043227;28;20665;-78
2023/08/26 09:06:25;;;;;;;1.50;1.20;;;;;;;18.91;62.10;100888.16;5043363;28;20207;-78
2023/08/26 09:08:54;;;;;;;3.10;1.27;;;;;;;19.11;62.44;100852.81;5041177;28;20207;-78
2023/08/26 09:11:21;;;;;;;1.23;0.80;;;;;;;19.17;59.90;100860.47;5040655;28;20206;-78
2023/08/26 09:13:48;;;;;;;1.10;1.10;;;;;;;19.27;61.21;100884.72;5041045;28;20219;-78
2023/08/26 09:16:14;;;;;;;3.13;1.03;;;;;;;19.50;60.51;100883.56;5041710;28;20213;-79
2023/08/26 09:18:41;;;;;;;1.10;1.00;;;;;;;19.35;58.98;100938.16;5043209;28;20201;-78
2023/08/26 09:21:09;;;;;;;1.03;0.87;;;;;;;19.27;59.00;100951.75;5043029;28;20194;-78
2023/08/26 09:23:44;;;;;;;3.60;0.80;;;;;;;19.31;60.10;100945.38;5042767;28;20216;-79
2023/08/26 09:26:12;;;;;;;2.23;1.03;;;;;;;19.34;60.33;100918.72;5050891;28;20215;-82
2023/08/26 09:28:39;;;;;;;0.83;0.80;;;;;;;19.48;60.54;100925.16;5045844;28;20280;-80
2023/08/26 09:31:07;;;;;;;1.50;0.90;;;;;;;19.67;59.45;100946.34;5044328;28;20206;-79
2023/08/26 09:33:34;;;;;;;0.70;0.70;;;;;;;19.44;60.64;100948.28;5045978;28;20227;-80
2023/08/26 09:36:00;;;;;;;0.70;0.70;;;;;;;19.27;60.00;100940.31;5046732;28;20709;-79
2023/08/26 09:38:31;;;;;;;0.70;0.70;;;;;;;18.81;62.45;100909.75;5045086;28;20204;-80
2023/08/26 09:40:58;;;;;;;1.13;0.90;;;;;;;18.83;63.18;100862.06;5045219;28;20204;-79
2023/08/26 09:43:26;;;;;;;1.50;0.87;;;;;;;18.68;61.07;100868.88;5046301;28;20253;-80
2023/08/26 09:45:56;;;;;;;1.53;0.70;;;;;;;18.89;59.97;100892.66;5045424;28;20200;-80
2023/08/26 09:48:24;;;;;;;2.87;1.10;;;;;;;18.96;61.01;100894.94;5043695;28;20665;-80
2023/08/26 09:50:50;;;;;;;0.80;0.70;;;;;;;18.64;62.04;100891.97;5045660;28;20201;-80
2023/08/26 09:53:29;;;;;;;1.40;0.90;;;;;;;18.86;60.37;100898.94;5046285;28;20235;-80
2023/08/26 09:55:57;;;;;;;2.60;0.90;;;;;;;18.98;61.12;100903.66;5046956;28;20255;-76
2023/08/26 09:58:25;;;;;;;1.20;0.77;;;;;;;19.01;60.40;100906.19;5045383;28;20236;-80
2023/08/26 10:01:03;;;;;;;2.53;1.00;;;;;;;18.84;60.75;100904.31;5037710;28;20209;-80
2023/08/26 10:03:29;;;;;;;0.70;0.57;;;;;;;18.92;60.82;100897.81;5033869;28;20260;-82
2023/08/26 10:05:59;;;;;;;1.07;0.53;;;;;;;19.09;60.20;100897.00;5035895;28;20209;-81
2023/08/26 10:08:31;;;;;;;1.10;0.80;;;;;;;19.08;59.33;100916.47;5036859;28;20204;-81
2023/08/26 10:11:02;;;;;;;0.93;0.90;;;;;;;19.29;58.52;100935.78;5037460;28;20216;-83
2023/08/26 10:13:34;;;;;;;1.20;0.83;;;;;;;19.13;59.58;100941.81;5038125;28;20528;-82
2023/08/26 10:16:03;;;;;;;0.90;0.80;;;;;;;19.17;58.94;100939.88;5039479;28;20286;-80
2023/08/26 10:18:38;;;;;;;2.33;0.93;;;;;;;19.11;58.92;100954.25;5038489;28;20238;-82
2023/08/26 10:21:05;;;;;;;1.73;0.83;;;;;;;19.48;60.69;100912.78;5036763;28;20215;-82
2023/08/26 10:23:33;;;;;;;0.60;0.60;;;;;;;19.77;58.56;100884.03;5032551;28;20320;-79
2023/08/26 10:26:00;;;;;;;0.60;0.60;;;;;;;19.95;58.23;100928.16;5031464;28;20704;-78
2023/08/26 10:28:27;;;;;;;0.70;0.70;;;;;;;19.88;56.09;100970.91;5031703;28;20221;-78
2023/08/26 10:30:58;;;;;;;1.00;0.87;;;;;;;20.19;58.97;100965.81;5033409;28;20206;-79
2023/08/26 10:33:24;;;;;;;1.70;0.80;;;;;;;20.00;57.72;100970.34;5035594;28;20239;-79
2023/08/26 10:36:12;;;;;;;0.90;0.60;;;;;;;20.16;56.79;100971.28;5035642;28;20213;-78
2023/08/26 10:38:40;;;;;;;1.10;0.73;;;;;;;20.03;56.18;101008.13;5035562;28;20219;-78
2023/08/26 10:41:10;;;;;;;0.93;0.70;;;;;;;20.34;56.95;100982.75;5035352;28;20273;-79
2023/08/26 10:43:37;;;;;;;1.43;0.70;;;;;;;20.20;55.44;101023.19;5035505;28;20221;-79
2023/08/26 10:46:04;;;;;;;3.60;1.00;;;;;;;20.20;56.53;101030.31;5035351;28;20212;-78
2023/08/26 10:48:55;;;;;;;0.70;0.70;;;;;;;20.36;56.83;101023.28;5035428;28;20204;-78
2023/08/26 10:51:22;;;;;;;0.70;0.63;;;;;;;20.56;56.54;100982.47;5034928;28;20204;-78
2023/08/26 10:53:49;;;;;;;2.00;0.60;;;;;;;20.53;54.54;101018.91;5035319;28;20228;-77
2023/08/26 10:56:18;;;;;;;1.60;0.80;;;;;;;20.80;56.62;101001.59;5035451;28;20217;-78
2023/08/26 10:58:45;;;;;;;1.00;0.40;;;;;;;20.89;56.23;101002.94;5035038;28;20693;-78
2023/08/26 11:01:14;;;;;;;1.80;1.00;;;;;;;20.27;53.53;101057.34;5034963;28;20559;-78
2023/08/26 11:03:43;;;;;;;0.70;0.60;;;;;;;20.34;54.66;101075.53;5034954;28;20229;-78
2023/08/26 11:06:12;;;;;;;2.63;0.70;;;;;;;20.30;54.69;101091.69;5034989;28;20222;-78
2023/08/26 11:08:40;;;;;;;1.80;0.70;;;;;;;20.29;55.43;101063.44;5035037;28;20210;-77
2023/08/26 11:11:11;;;;;;;2.37;0.70;;;;;;;20.26;54.92;101064.47;5035174;28;20209;-78
2023/08/26 11:13:40;;;;;;;1.67;0.80;;;;;;;20.48;55.58;101050.13;5034705;28;20241;-78
2023/08/26 11:16:07;;;;;;;2.10;0.80;;;;;;;20.43;55.87;101037.09;5034827;28;20211;-78
2023/08/26 11:18:35;;;;;;;1.03;0.70;;;;;;;20.74;55.55;101011.69;5034618;28;20583;-78
2023/08/26 11:21:04;;;;;;;1.20;0.67;;;;;;;20.67;54.14;101058.88;5034880;28;20562;-77